createdAt,value
2023-04-12T00:01:29.682Z,99982.38
2023-04-12T00:03:57.497Z,99984.06
2023-04-12T00:06:27.765Z,99977.97
2023-04-12T00:08:56.201Z,99987.38
2023-04-12T00:11:26.128Z,99980.53
2023-04-12T00:13:53.680Z,99980.50
2023-04-12T00:16:23.854Z,99981.13
2023-04-12T00:18:51.638Z,99980.13
2023-04-12T00:21:19.867Z,99981.63
2023-04-12T00:23:47.609Z,99976.50
2023-04-12T00:26:16.002Z,99984.25
2023-04-12T00:28:45.044Z,99985.88
2023-04-12T00:31:12.833Z,99985.00
2023-04-12T00:33:40.441Z,99979.72
2023-04-12T00:36:08.572Z,99983.00
2023-04-12T00:38:36.698Z,99991.59
2023-04-12T00:41:04.824Z,99976.84
2023-04-12T00:43:32.485Z,99984.59
2023-04-12T00:46:00.320Z,99990.56
2023-04-12T00:48:28.984Z,99977.63
2023-04-12T00:50:57.781Z,99977.38
2023-04-12T00:53:25.721Z,99979.50
2023-04-12T00:55:54.629Z,99987.09
2023-04-12T00:58:26.904Z,99976.75
2023-04-12T01:00:54.885Z,99980.94
2023-04-12T01:03:27.838Z,99980.66
2023-04-12T01:06:21.793Z,99986.97
2023-04-12T01:09:01.615Z,99975.59
2023-04-12T01:11:34.895Z,99980.53
2023-04-12T01:14:16.084Z,99971.03
2023-04-12T01:16:47.901Z,99963.34
2023-04-12T01:19:54.216Z,99964.53
2023-04-12T01:22:54.888Z,99970.38
2023-04-12T01:25:39.488Z,99965.69
2023-04-12T01:28:14.905Z,99964.56
2023-04-12T01:30:43.566Z,99953.13
2023-04-12T01:33:12.591Z,99955.56
2023-04-12T01:35:44.287Z,99953.94
2023-04-12T01:38:12.015Z,99954.75
2023-04-12T01:40:42.600Z,99952.13
2023-04-12T01:43:12.588Z,99957.97
2023-04-12T01:45:40.695Z,99956.34
2023-04-12T01:48:10.117Z,99949.63
2023-04-12T01:51:04.997Z,99959.38
2023-04-12T01:53:48.238Z,99954.91
2023-04-12T01:56:18.691Z,99955.06
2023-04-12T01:58:48.772Z,99956.50
2023-04-12T02:01:19.297Z,99954.59
2023-04-12T02:03:51.788Z,99942.41
2023-04-12T02:06:21.065Z,99947.53
2023-04-12T02:08:48.960Z,99947.34
2023-04-12T02:11:16.825Z,99945.53
2023-04-12T02:13:45.207Z,99947.94
2023-04-12T02:16:34.344Z,99941.88
2023-04-12T02:19:02.240Z,99943.47
2023-04-12T02:21:39.052Z,99942.44
2023-04-12T02:24:06.662Z,99944.78
2023-04-12T02:26:34.158Z,99944.69
2023-04-12T02:29:01.885Z,99952.31
2023-04-12T02:31:30.752Z,99949.53
2023-04-12T02:33:58.868Z,99937.25
2023-04-12T02:36:26.708Z,99943.19
2023-04-12T02:38:54.589Z,99940.34
2023-04-12T02:41:23.019Z,99947.28
2023-04-12T02:43:51.181Z,99940.31
2023-04-12T02:46:27.395Z,99942.16
2023-04-12T02:48:59.512Z,99951.72
2023-04-12T02:51:41.824Z,99950.78
2023-04-12T02:54:10.410Z,99942.25
2023-04-12T02:56:50.124Z,99951.72
2023-04-12T02:59:39.908Z,99952.63
2023-04-12T03:02:20.642Z,99958.66
2023-04-12T03:04:50.948Z,99951.97
2023-04-12T03:07:23.613Z,99951.44
2023-04-12T03:09:52.842Z,99946.47
2023-04-12T03:12:23.091Z,99956.94
2023-04-12T03:15:05.541Z,99964.09
2023-04-12T03:17:33.077Z,99955.59
2023-04-12T03:20:10.232Z,99964.22
2023-04-12T03:22:41.448Z,99955.84
2023-04-12T03:25:12.788Z,99955.25
2023-04-12T03:27:47.760Z,99960.56
2023-04-12T03:30:19.332Z,99970.25
2023-04-12T03:32:47.872Z,99962.63
2023-04-12T03:35:15.733Z,99963.03
2023-04-12T03:37:43.985Z,99971.03
2023-04-12T03:40:13.298Z,99959.38
2023-04-12T03:42:45.953Z,99970.16
2023-04-12T03:45:15.698Z,99965.34
2023-04-12T03:47:48.074Z,99967.53
2023-04-12T03:50:17.456Z,99963.56
2023-04-12T03:52:51.698Z,99974.38
2023-04-12T03:55:19.378Z,99980.75
2023-04-12T03:57:50.691Z,99966.53
2023-04-12T04:00:20.191Z,99955.63
2023-04-12T04:03:09.104Z,99972.25
2023-04-12T04:05:45.378Z,99968.22
2023-04-12T04:08:14.494Z,99970.44
2023-04-12T04:10:52.563Z,99969.94
2023-04-12T04:13:23.164Z,99959.91
2023-04-12T04:16:06.054Z,99972.50
2023-04-12T04:18:36.074Z,99968.53
2023-04-12T04:21:07.478Z,99973.28
2023-04-12T04:23:45.117Z,99966.75
2023-04-12T04:26:14.016Z,99977.41
2023-04-12T04:28:51.903Z,99968.50
2023-04-12T04:31:26.379Z,99969.47
2023-04-12T04:33:54.439Z,99970.63
2023-04-12T04:36:30.095Z,99967.53
2023-04-12T04:38:58.292Z,99974.09
2023-04-12T04:41:41.539Z,99971.00
2023-04-12T04:44:19.543Z,99970.56
2023-04-12T04:46:55.060Z,99980.59
2023-04-12T04:49:22.571Z,99973.09
2023-04-12T04:51:50.567Z,99973.56
2023-04-12T04:54:19.226Z,99979.03
2023-04-12T04:56:46.705Z,99970.75
2023-04-12T04:59:17.970Z,99974.41
2023-04-12T05:01:45.819Z,99971.19
2023-04-12T05:04:17.017Z,99975.13
2023-04-12T05:06:46.026Z,99972.91
2023-04-12T05:09:16.252Z,99979.56
2023-04-12T05:11:49.096Z,99985.13
2023-04-12T05:14:17.062Z,99980.41
2023-04-12T05:16:44.652Z,99979.13
2023-04-12T05:19:12.259Z,99969.25
2023-04-12T05:21:40.808Z,99978.22
2023-04-12T05:24:08.873Z,99971.72
2023-04-12T05:26:38.798Z,99969.69
2023-04-12T05:29:12.066Z,99972.56
2023-04-12T05:31:39.735Z,99972.84
2023-04-12T05:34:13.378Z,99972.22
2023-04-12T05:36:51.205Z,99963.03
2023-04-12T05:39:20.698Z,99962.50
2023-04-12T05:41:49.564Z,99946.34
2023-04-12T05:44:17.086Z,99965.59
2023-04-12T05:46:45.796Z,99966.47
2023-04-12T05:49:13.751Z,99962.31
2023-04-12T05:51:41.885Z,99965.00
2023-04-12T05:54:21.288Z,99965.88
2023-04-12T05:56:55.222Z,99972.16
2023-04-12T05:59:23.878Z,99962.75
2023-04-12T06:01:52.113Z,99964.53
2023-04-12T06:04:25.162Z,99962.81
2023-04-12T06:06:57.881Z,99962.81
2023-04-12T06:09:25.461Z,99970.69
2023-04-12T06:11:53.922Z,99978.44
2023-04-12T06:14:21.446Z,99972.59
2023-04-12T06:16:49.274Z,99960.78
2023-04-12T06:19:17.238Z,99964.47
2023-04-12T06:21:44.818Z,99958.47
2023-04-12T06:24:12.608Z,99965.66
2023-04-12T06:26:43.180Z,99952.94
2023-04-12T06:29:10.962Z,99955.69
2023-04-12T06:31:38.537Z,99952.31
2023-04-12T06:34:07.319Z,99947.16
2023-04-12T06:36:40.284Z,99949.03
2023-04-12T06:39:09.432Z,99945.56
2023-04-12T06:41:37.149Z,99944.72
2023-04-12T06:44:04.949Z,99949.94
2023-04-12T06:46:32.641Z,99942.97
2023-04-12T06:49:00.393Z,99943.88
2023-04-12T06:51:28.403Z,99943.78
2023-04-12T06:53:57.796Z,99943.69
2023-04-12T06:56:25.360Z,99949.75
2023-04-12T06:58:53.042Z,99945.41
2023-04-12T07:01:20.793Z,99946.13
2023-04-12T07:03:48.456Z,99950.53
2023-04-12T07:06:24.946Z,99935.66
2023-04-12T07:08:53.460Z,99936.31
2023-04-12T07:11:24.116Z,99942.97
2023-04-12T07:13:51.821Z,99933.66
2023-04-12T07:16:19.575Z,99937.50
2023-04-12T07:18:47.718Z,99937.91
2023-04-12T07:21:17.576Z,99945.28
2023-04-12T07:23:46.719Z,99949.97
2023-04-12T07:26:14.343Z,99945.63
2023-04-12T07:28:42.081Z,99945.16
2023-04-12T07:31:09.609Z,99946.31
2023-04-12T07:33:38.841Z,99950.44
2023-04-12T07:36:08.612Z,99942.28
2023-04-12T07:38:36.217Z,99932.22
2023-04-12T07:41:03.853Z,99933.41
2023-04-12T07:43:31.478Z,99931.06
2023-04-12T07:45:59.679Z,99933.25
2023-04-12T07:48:27.239Z,99924.78
2023-04-12T07:50:54.783Z,99935.63
2023-04-12T07:53:24.408Z,99936.06
2023-04-12T07:55:52.238Z,99932.31
2023-04-12T07:58:22.782Z,99932.66
2023-04-12T08:00:51.152Z,99927.34
2023-04-12T08:03:19.509Z,99926.63
2023-04-12T08:05:49.633Z,99920.31
2023-04-12T08:08:17.281Z,99921.31
2023-04-12T08:10:50.474Z,99917.31
2023-04-12T08:13:19.755Z,99915.63
2023-04-12T08:15:50.400Z,99916.84
2023-04-12T08:18:18.027Z,99911.19
2023-04-12T08:20:45.737Z,99906.34
2023-04-12T08:23:15.808Z,99903.75
2023-04-12T08:25:43.329Z,99906.44
2023-04-12T08:28:10.804Z,99915.91
2023-04-12T08:30:38.432Z,99909.28
2023-04-12T08:33:06.045Z,99903.44
2023-04-12T08:35:33.963Z,99894.16
2023-04-12T08:38:07.439Z,99890.53
2023-04-12T08:40:35.797Z,99902.31
2023-04-12T08:43:08.249Z,99897.09
2023-04-12T08:45:36.399Z,99891.97
2023-04-12T08:48:06.207Z,99901.63
2023-04-12T08:50:34.469Z,99911.00
2023-04-12T08:53:03.134Z,99901.88
2023-04-12T08:55:30.745Z,99888.56
2023-04-12T08:57:59.235Z,99894.75
2023-04-12T09:00:27.706Z,99882.50
2023-04-12T09:02:55.293Z,99891.25
2023-04-12T09:05:29.949Z,99889.81
2023-04-12T09:07:58.732Z,99894.78
2023-04-12T09:10:38.076Z,99876.75
2023-04-12T09:13:06.803Z,99876.00
2023-04-12T09:15:35.017Z,99878.81
2023-04-12T09:18:08.457Z,99866.53
2023-04-12T09:20:36.768Z,99865.22
2023-04-12T09:23:21.596Z,99866.94
2023-04-12T09:25:51.947Z,99867.00
2023-04-12T09:28:24.100Z,99861.16
2023-04-12T09:30:56.544Z,99854.22
2023-04-12T09:33:44.501Z,99879.34
2023-04-12T09:36:17.524Z,99843.78
2023-04-12T09:39:06.149Z,99841.81
2023-04-12T09:41:34.294Z,99848.28
2023-04-12T09:44:02.732Z,99850.78
2023-04-12T09:46:30.904Z,99845.81
2023-04-12T09:49:00.875Z,99846.44
2023-04-12T09:51:31.462Z,99842.25
2023-04-12T09:54:01.578Z,99839.13
2023-04-12T09:56:36.755Z,99839.22
2023-04-12T09:59:06.885Z,99847.31
2023-04-12T10:01:38.438Z,99838.47
2023-04-12T10:04:08.768Z,99831.31
2023-04-12T10:06:37.503Z,99840.88
2023-04-12T10:09:06.812Z,99841.88
2023-04-12T10:11:34.821Z,99841.69
2023-04-12T10:14:06.245Z,99837.44
2023-04-12T10:16:35.180Z,99829.47
2023-04-12T10:19:04.239Z,99834.38
2023-04-12T10:21:32.045Z,99827.00
2023-04-12T10:24:00.715Z,99813.75
2023-04-12T10:26:28.443Z,99822.63
2023-04-12T10:29:27.889Z,99825.66
2023-04-12T10:31:57.270Z,99828.81
2023-04-12T10:34:31.230Z,99826.72
2023-04-12T10:37:00.665Z,99818.09
2023-04-12T10:39:47.333Z,99819.53
2023-04-12T10:42:24.025Z,99824.16
2023-04-12T10:44:53.371Z,99823.69
2023-04-12T10:47:50.350Z,99813.22
2023-04-12T10:50:24.569Z,99810.59
2023-04-12T10:53:12.496Z,99806.75
2023-04-12T10:55:41.356Z,99805.50
2023-04-12T10:58:09.415Z,99792.13
2023-04-12T11:00:58.843Z,99792.75
2023-04-12T11:03:28.514Z,99787.78
2023-04-12T11:06:16.308Z,99783.94
2023-04-12T11:09:25.624Z,99780.09
2023-04-12T11:11:58.094Z,99773.66
2023-04-12T11:14:30.155Z,99763.25
2023-04-12T11:17:06.625Z,99761.59
2023-04-12T11:19:34.665Z,99750.22
2023-04-12T11:22:04.478Z,99748.41
2023-04-12T11:24:32.202Z,99738.69
2023-04-12T11:27:00.990Z,99745.03
2023-04-12T11:29:32.677Z,99731.34
2023-04-12T11:32:03.558Z,99737.84
2023-04-12T11:34:35.353Z,99743.19
2023-04-12T11:37:10.479Z,99736.72
2023-04-12T11:39:43.582Z,99733.81
2023-04-12T11:42:23.223Z,99734.34
2023-04-12T11:47:27.532Z,99722.28
2023-04-12T11:49:57.271Z,99734.41
2023-04-12T11:52:32.571Z,99723.19
2023-04-12T11:55:07.021Z,99715.13
2023-04-12T11:57:35.454Z,99717.94
2023-04-12T12:00:06.790Z,99708.09
2023-04-12T12:02:49.396Z,99717.53
2023-04-12T12:05:24.840Z,99713.09
2023-04-12T12:07:55.164Z,99701.91
2023-04-12T12:10:41.724Z,99702.91
2023-04-12T12:13:12.263Z,99695.84
2023-04-12T12:15:45.076Z,99686.94
2023-04-12T12:18:12.871Z,99703.84
2023-04-12T12:20:49.078Z,99701.91
2023-04-12T12:23:28.822Z,99693.59
2023-04-12T12:26:18.840Z,99703.16
2023-04-12T12:28:55.150Z,99695.13
2023-04-12T12:31:23.426Z,99679.28
2023-04-12T12:33:59.436Z,99679.72
2023-04-12T12:36:32.847Z,99682.81
2023-04-12T12:39:10.637Z,99675.97
2023-04-12T12:41:40.089Z,99677.44
2023-04-12T12:44:08.298Z,99664.63
2023-04-12T12:49:06.847Z,99659.69
2023-04-12T12:51:34.346Z,99669.19
2023-04-12T12:54:01.845Z,99652.09
2023-04-12T12:56:30.396Z,99659.31
2023-04-12T12:58:58.010Z,99658.59
2023-04-12T13:01:27.072Z,99649.84
2023-04-12T13:03:54.948Z,99654.41
2023-04-12T13:06:23.253Z,99644.88
2023-04-12T13:08:52.356Z,99645.47
2023-04-12T13:11:22.617Z,99649.47
2023-04-12T13:13:50.255Z,99644.00
2023-04-12T13:16:17.881Z,99645.63
2023-04-12T13:18:45.601Z,99652.97
2023-04-12T13:21:13.193Z,99637.59
2023-04-12T13:23:40.673Z,99643.19
2023-04-12T13:26:08.224Z,99644.81
2023-04-12T13:28:35.729Z,99638.38
2023-04-12T13:31:03.664Z,99627.63
2023-04-12T13:33:31.220Z,99645.41
2023-04-12T13:35:58.762Z,99649.13
2023-04-12T13:38:26.711Z,99655.22
2023-04-12T13:40:56.686Z,99633.06
2023-04-12T13:43:24.295Z,99643.00
2023-04-12T13:45:52.132Z,99640.56
2023-04-12T13:48:19.993Z,99632.91
2023-04-12T13:50:49.681Z,99645.28
2023-04-12T13:53:18.469Z,99636.69
2023-04-12T13:55:46.516Z,99644.63
2023-04-12T13:58:14.379Z,99639.50
2023-04-12T14:00:41.896Z,99632.59
2023-04-12T14:03:09.543Z,99640.44
2023-04-12T14:05:37.118Z,99645.72
2023-04-12T14:08:04.811Z,99638.78
2023-04-12T14:10:32.285Z,99640.59
2023-04-12T14:13:00.555Z,99637.09
2023-04-12T14:15:28.175Z,99636.25
2023-04-12T14:17:56.184Z,99630.16
2023-04-12T14:20:24.122Z,99637.09
2023-04-12T14:22:51.761Z,99634.53
2023-04-12T14:25:19.421Z,99637.16
2023-04-12T14:27:46.941Z,99641.53
2023-04-12T14:30:16.355Z,99638.88
2023-04-12T14:32:47.316Z,99634.56
2023-04-12T14:35:15.464Z,99637.97
2023-04-12T14:37:43.127Z,99644.88
2023-04-12T14:40:10.702Z,99642.25
2023-04-12T14:42:38.700Z,99644.84
2023-04-12T14:45:08.272Z,99640.50
2023-04-12T14:47:36.043Z,99641.38
2023-04-12T14:50:04.486Z,99634.41
2023-04-12T14:52:32.301Z,99624.91
2023-04-12T14:55:01.494Z,99635.31
2023-04-12T14:57:29.589Z,99637.00
2023-04-12T14:59:57.132Z,99632.66
2023-04-12T15:02:26.371Z,99631.84
2023-04-12T15:04:57.392Z,99627.50
2023-04-12T15:07:25.598Z,99618.81
2023-04-12T15:09:57.476Z,99626.59
2023-04-12T15:12:25.028Z,99630.91
2023-04-12T15:14:54.059Z,99621.31
2023-04-12T15:17:21.792Z,99628.22
2023-04-12T15:19:49.424Z,99622.16
2023-04-12T15:22:16.901Z,99616.94
2023-04-12T15:24:44.370Z,99620.38
2023-04-12T15:27:11.961Z,99628.16
2023-04-12T15:29:39.960Z,99621.19
2023-04-12T15:32:08.813Z,99622.88
2023-04-12T15:34:36.602Z,99610.72
2023-04-12T15:37:05.387Z,99615.91
2023-04-12T15:39:33.158Z,99609.81
2023-04-12T15:42:01.194Z,99605.44
2023-04-12T15:44:32.130Z,99609.78
2023-04-12T15:47:10.864Z,99610.63
2023-04-12T15:49:42.018Z,99614.91
2023-04-12T15:52:09.868Z,99602.75
2023-04-12T15:54:43.728Z,99608.75
2023-04-12T15:57:11.742Z,99603.56
2023-04-12T15:59:40.774Z,99601.78
2023-04-12T16:02:10.177Z,99604.38
2023-04-12T16:04:38.370Z,99610.38
2023-04-12T16:07:06.183Z,99606.81
2023-04-12T16:09:34.986Z,99609.41
2023-04-12T16:12:02.653Z,99599.81
2023-04-12T16:14:30.261Z,99602.34
2023-04-12T16:17:02.259Z,99604.94
2023-04-12T16:19:30.002Z,99600.56
2023-04-12T16:21:58.166Z,99599.63
2023-04-12T16:24:25.970Z,99610.84
2023-04-12T16:26:53.759Z,99599.53
2023-04-12T16:29:21.907Z,99610.75
2023-04-12T16:31:49.737Z,99610.66
2023-04-12T16:34:21.481Z,99616.72
2023-04-12T16:36:49.707Z,99612.31
2023-04-12T16:39:17.721Z,99602.75
2023-04-12T16:41:47.201Z,99614.84
2023-04-12T16:44:18.945Z,99612.22
2023-04-12T16:46:48.264Z,99613.91
2023-04-12T16:49:19.055Z,99613.88
2023-04-12T16:51:49.875Z,99621.59
2023-04-12T16:54:17.920Z,99612.94
2023-04-12T16:56:47.894Z,99621.56
2023-04-12T16:59:15.752Z,99613.72
2023-04-12T17:01:44.445Z,99624.97
2023-04-12T17:04:13.386Z,99622.34
2023-04-12T17:06:44.998Z,99618.03
2023-04-12T17:09:12.872Z,99624.97
2023-04-12T17:11:40.800Z,99622.34
2023-04-12T17:14:09.725Z,99624.00
2023-04-12T17:16:38.507Z,99621.38
2023-04-12T17:19:06.874Z,99626.59
2023-04-12T17:21:42.240Z,99632.66
2023-04-12T17:24:11.034Z,99629.13
2023-04-12T17:26:38.981Z,99639.44
2023-04-12T17:29:09.628Z,99635.91
2023-04-12T17:31:37.809Z,99641.09
2023-04-12T17:34:05.884Z,99638.47
2023-04-12T17:36:34.088Z,99641.94
2023-04-12T17:39:04.549Z,99646.16
2023-04-12T17:41:32.221Z,99649.66
2023-04-12T17:44:00.100Z,99652.22
2023-04-12T17:46:27.781Z,99650.50
2023-04-12T17:48:55.562Z,99651.31
2023-04-12T17:51:23.350Z,99652.13
2023-04-12T17:53:50.784Z,99657.31
2023-04-12T17:56:18.853Z,99647.75
2023-04-12T17:58:46.821Z,99652.97
2023-04-12T18:01:14.515Z,99653.81
2023-04-12T18:03:42.587Z,99656.34
2023-04-12T18:06:10.323Z,99649.34
2023-04-12T18:08:38.617Z,99661.56
2023-04-12T18:11:07.780Z,99655.56
2023-04-12T18:13:36.853Z,99662.53
2023-04-12T18:16:04.855Z,99660.72
2023-04-12T18:18:32.533Z,99665.06
2023-04-12T18:21:03.910Z,99667.66
2023-04-12T18:23:32.590Z,99662.47
2023-04-12T18:26:00.248Z,99665.91
2023-04-12T18:28:31.595Z,99664.16
2023-04-12T18:31:02.362Z,99651.09
2023-04-12T18:33:33.148Z,99658.78
2023-04-12T18:36:04.072Z,99665.69
2023-04-12T18:38:35.686Z,99675.25
2023-04-12T18:41:04.598Z,99671.00
2023-04-12T18:43:33.325Z,99664.88
2023-04-12T18:46:01.657Z,99670.94
2023-04-12T18:48:30.512Z,99675.25
2023-04-12T18:50:59.532Z,99659.63
2023-04-12T18:53:27.180Z,99672.63
2023-04-12T18:55:54.716Z,99676.91
2023-04-12T18:58:23.559Z,99670.84
2023-04-12T19:00:51.631Z,99672.59
2023-04-12T19:03:19.481Z,99670.84
2023-04-12T19:05:47.232Z,99677.72
2023-04-12T19:08:15.289Z,99674.16
2023-04-12T19:10:43.000Z,99668.91
2023-04-12T19:13:11.423Z,99661.03
2023-04-12T19:15:39.338Z,99668.91
2023-04-12T19:18:07.277Z,99650.66
2023-04-12T19:20:34.834Z,99663.69
2023-04-12T19:23:03.480Z,99656.72
2023-04-12T19:25:33.109Z,99658.44
2023-04-12T19:28:01.258Z,99652.34
2023-04-12T19:30:31.845Z,99654.00
2023-04-12T19:33:00.281Z,99654.94
2023-04-12T19:35:32.842Z,99656.53
2023-04-12T19:38:00.497Z,99653.00
2023-04-12T19:40:30.421Z,99646.97
2023-04-12T19:42:58.938Z,99656.41
2023-04-12T19:45:27.776Z,99642.56
2023-04-12T19:47:55.384Z,99645.16
2023-04-12T19:50:23.162Z,99652.84
2023-04-12T19:52:50.670Z,99642.44
2023-04-12T19:55:21.459Z,99639.84
2023-04-12T19:57:49.243Z,99650.31
2023-04-12T20:00:20.657Z,99650.25
2023-04-12T20:02:53.373Z,99653.59
2023-04-12T20:05:24.218Z,99644.91
2023-04-12T20:07:52.810Z,99643.03
2023-04-12T20:10:20.605Z,99647.34
2023-04-12T20:12:48.166Z,99647.28
2023-04-12T20:15:17.718Z,99649.78
2023-04-12T20:17:45.981Z,99651.47
2023-04-12T20:20:16.165Z,99654.94
2023-04-12T20:22:46.306Z,99663.59
2023-04-12T20:25:15.212Z,99653.94
2023-04-12T20:27:44.760Z,99659.97
2023-04-12T20:30:16.935Z,99652.97
2023-04-12T20:32:44.853Z,99657.28
2023-04-12T20:35:14.210Z,99659.06
2023-04-12T20:37:42.090Z,99659.06
2023-04-12T20:40:10.314Z,99652.97
2023-04-12T20:42:37.959Z,99648.72
2023-04-12T20:45:05.886Z,99653.94
2023-04-12T20:47:34.814Z,99658.25
2023-04-12T20:50:02.682Z,99661.66
2023-04-12T20:52:31.246Z,99661.66
2023-04-12T20:54:58.812Z,99653.94
2023-04-12T20:57:27.682Z,99660.00
2023-04-12T20:59:55.477Z,99654.81
2023-04-12T21:02:23.158Z,99658.28
2023-04-12T21:04:50.953Z,99653.91
2023-04-12T21:07:20.295Z,99651.34
2023-04-12T21:09:48.444Z,99649.50
2023-04-12T21:12:17.678Z,99652.09
2023-04-12T21:14:45.362Z,99662.41
2023-04-12T21:17:13.283Z,99655.44
2023-04-12T21:19:41.912Z,99645.06
2023-04-12T21:22:09.497Z,99656.28
2023-04-12T21:24:39.795Z,99657.00
2023-04-12T21:27:08.439Z,99663.03
2023-04-12T21:29:41.175Z,99663.03
2023-04-12T21:32:09.648Z,99654.25
2023-04-12T21:34:37.622Z,99665.69
2023-04-12T21:37:05.597Z,99659.59
2023-04-12T21:39:33.329Z,99666.47
2023-04-12T21:42:01.719Z,99656.91
2023-04-12T21:44:30.977Z,99661.09
2023-04-12T21:46:58.527Z,99657.63
2023-04-12T21:49:25.968Z,99656.75
2023-04-12T21:51:57.038Z,99651.44
2023-04-12T21:54:24.491Z,99657.56
2023-04-12T21:56:51.974Z,99654.03
2023-04-12T21:59:19.396Z,99655.69
2023-04-12T22:01:47.022Z,99653.94
2023-04-12T22:04:14.550Z,99652.88
2023-04-12T22:06:44.614Z,99644.19
2023-04-12T22:09:12.490Z,99650.28
2023-04-12T22:11:40.188Z,99642.41
2023-04-12T22:14:07.962Z,99645.03
2023-04-12T22:16:35.433Z,99646.81
2023-04-12T22:19:02.962Z,99643.16
2023-04-12T22:21:31.054Z,99640.50
2023-04-12T22:23:58.982Z,99638.66
2023-04-12T22:26:26.761Z,99647.28
2023-04-12T22:28:54.373Z,99636.94
2023-04-12T22:31:22.451Z,99634.31
2023-04-12T22:33:50.010Z,99635.22
2023-04-12T22:36:17.768Z,99637.91
2023-04-12T22:38:47.578Z,99635.09
2023-04-12T22:41:18.434Z,99626.50
2023-04-12T22:43:47.820Z,99632.50
2023-04-12T22:46:18.842Z,99634.25
2023-04-12T22:48:48.094Z,99627.31
2023-04-12T22:51:15.808Z,99630.72
2023-04-12T22:53:46.619Z,99620.16
2023-04-12T22:56:14.140Z,99621.75
2023-04-12T22:58:42.980Z,99635.59
2023-04-12T23:01:10.937Z,99629.41
2023-04-12T23:03:38.599Z,99631.25
2023-04-12T23:06:06.302Z,99629.41
2023-04-12T23:08:37.205Z,99631.16
2023-04-12T23:11:05.176Z,99628.53
2023-04-12T23:13:35.806Z,99627.78
2023-04-12T23:16:03.764Z,99622.50
2023-04-12T23:18:32.872Z,99631.28
2023-04-12T23:21:01.824Z,99630.28
2023-04-12T23:23:29.821Z,99620.59
2023-04-12T23:25:57.307Z,99619.66
2023-04-12T23:28:26.718Z,99619.47
2023-04-12T23:30:54.379Z,99618.75
2023-04-12T23:33:22.085Z,99622.84
2023-04-12T23:36:02.749Z,99618.41
2023-04-12T23:38:38.648Z,99615.78
2023-04-12T23:41:07.527Z,99607.88
2023-04-12T23:43:35.240Z,99616.47
2023-04-12T23:46:03.280Z,99619.94
2023-04-12T23:48:35.368Z,99612.28
2023-04-12T23:51:03.114Z,99621.63
2023-04-12T23:53:30.848Z,99624.84
2023-04-12T23:55:58.856Z,99619.59
2023-04-12T23:58:26.704Z,99623.78
